sensor_id;sensor_type;location;lat;lon;timestamp;temperature;humidity
2935;DHT22;2462;51.456;7.248;2023-08-01T09:08:01;25.20;93.00
2935;DHT22;2462;51.456;7.248;2023-08-01T09:10:31;25.20;93.70
2935;DHT22;2462;51.456;7.248;2023-08-01T09:12:56;25.10;94.00
2935;DHT22;2462;51.456;7.248;2023-08-01T09:15:23;25.20;93.60
2935;DHT22;2462;51.456;7.248;2023-08-01T09:17:55;25.30;93.40
2935;DHT22;2462;51.456;7.248;2023-08-01T09:20:27;25.00;93.60
2935;DHT22;2462;51.456;7.248;2023-08-01T09:22:53;25.20;93.60
2935;DHT22;2462;51.456;7.248;2023-08-01T09:25:19;25.20;93.80
2935;DHT22;2462;51.456;7.248;2023-08-01T09:27:44;25.50;93.30
2935;DHT22;2462;51.456;7.248;2023-08-01T09:30:14;25.60;93.30
2935;DHT22;2462;51.456;7.248;2023-08-01T09:32:55;25.80;93.20
2935;DHT22;2462;51.456;7.248;2023-08-01T09:35:22;26.00;92.30
2935;DHT22;2462;51.456;7.248;2023-08-01T09:37:48;26.20;92.20
2935;DHT22;2462;51.456;7.248;2023-08-01T09:40:14;26.40;91.80
2935;DHT22;2462;51.456;7.248;2023-08-01T09:42:41;26.70;91.40
2935;DHT22;2462;51.456;7.248;2023-08-01T09:45:17;26.90;91.20
2935;DHT22;2462;51.456;7.248;2023-08-01T09:47:43;27.10;91.00
2935;DHT22;2462;51.456;7.248;2023-08-01T10:07:26;27.50;85.60
2935;DHT22;2462;51.456;7.248;2023-08-01T10:09:54;27.50;86.70
2935;DHT22;2462;51.456;7.248;2023-08-01T10:12:22;27.30;87.10
2935;DHT22;2462;51.456;7.248;2023-08-01T10:14:50;27.00;88.00
2935;DHT22;2462;51.456;7.248;2023-08-01T10:17:16;26.70;88.90
2935;DHT22;2462;51.456;7.248;2023-08-01T10:19:42;26.60;89.10
2935;DHT22;2462;51.456;7.248;2023-08-01T10:22:08;26.40;89.40
2935;DHT22;2462;51.456;7.248;2023-08-01T10:24:35;26.20;90.90
2935;DHT22;2462;51.456;7.248;2023-08-01T10:27:18;26.00;91.50
2935;DHT22;2462;51.456;7.248;2023-08-01T10:29:43;25.70;92.30
2935;DHT22;2462;51.456;7.248;2023-08-01T10:32:10;25.40;92.80
2935;DHT22;2462;51.456;7.248;2023-08-01T10:34:35;25.30;93.70
2935;DHT22;2462;51.456;7.248;2023-08-01T10:37:01;25.40;94.30
2935;DHT22;2462;51.456;7.248;2023-08-01T10:39:28;25.50;94.10
2935;DHT22;2462;51.456;7.248;2023-08-01T10:42:02;25.80;94.40
2935;DHT22;2462;51.456;7.248;2023-08-01T10:44:28;26.00;94.10
2935;DHT22;2462;51.456;7.248;2023-08-01T10:47:00;26.40;93.70
2935;DHT22;2462;51.456;7.248;2023-08-01T10:49:44;26.70;92.60
2935;DHT22;2462;51.456;7.248;2023-08-01T10:52:20;26.90;92.40
2935;DHT22;2462;51.456;7.248;2023-08-01T10:55:02;27.10;92.20
2935;DHT22;2462;51.456;7.248;2023-08-01T10:57:29;27.20;92.60
2935;DHT22;2462;51.456;7.248;2023-08-01T10:59:57;27.50;92.20
2935;DHT22;2462;51.456;7.248;2023-08-01T11:02:31;27.60;90.70
2935;DHT22;2462;51.456;7.248;2023-08-01T11:05:01;27.80;90.10
2935;DHT22;2462;51.456;7.248;2023-08-01T11:07:28;27.80;90.50
2935;DHT22;2462;51.456;7.248;2023-08-01T11:10:07;27.70;90.50
2935;DHT22;2462;51.456;7.248;2023-08-01T11:12:43;27.40;90.60
2935;DHT22;2462;51.456;7.248;2023-08-01T11:15:11;27.20;90.90
2935;DHT22;2462;51.456;7.248;2023-08-01T11:17:37;26.90;91.10
2935;DHT22;2462;51.456;7.248;2023-08-01T11:20:08;26.60;91.40
2935;DHT22;2462;51.456;7.248;2023-08-01T11:22:35;26.40;91.50
2935;DHT22;2462;51.456;7.248;2023-08-01T11:25:01;26.20;91.70
2935;DHT22;2462;51.456;7.248;2023-08-01T11:27:27;25.90;91.90
2935;DHT22;2462;51.456;7.248;2023-08-01T11:29:54;25.60;92.00
2935;DHT22;2462;51.456;7.248;2023-08-01T11:32:20;25.40;92.40
2935;DHT22;2462;51.456;7.248;2023-08-01T11:34:46;25.30;92.70
2935;DHT22;2462;51.456;7.248;2023-08-01T11:37:15;25.20;92.80
2935;DHT22;2462;51.456;7.248;2023-08-01T11:39:42;25.10;93.00
2935;DHT22;2462;51.456;7.248;2023-08-01T11:42:16;25.00;93.30
2935;DHT22;2462;51.456;7.248;2023-08-01T11:44:43;25.00;93.20
2935;DHT22;2462;51.456;7.248;2023-08-01T11:47:16;24.90;93.20
2935;DHT22;2462;51.456;7.248;2023-08-01T11:49:46;24.90;93.20
2935;DHT22;2462;51.456;7.248;2023-08-01T11:52:26;24.90;93.30
2935;DHT22;2462;51.456;7.248;2023-08-01T11:54:52;24.90;93.30
2935;DHT22;2462;51.456;7.248;2023-08-01T11:57:23;25.00;93.30
2935;DHT22;2462;51.456;7.248;2023-08-01T11:59:50;25.10;93.20
2935;DHT22;2462;51.456;7.248;2023-08-01T12:02:22;25.10;93.20
2935;DHT22;2462;51.456;7.248;2023-08-01T12:04:48;25.30;93.20
2935;DHT22;2462;51.456;7.248;2023-08-01T12:07:15;25.50;93.00
2935;DHT22;2462;51.456;7.248;2023-08-01T12:09:40;25.60;92.80
2935;DHT22;2462;51.456;7.248;2023-08-01T12:12:06;25.90;92.60
2935;DHT22;2462;51.456;7.248;2023-08-01T12:14:32;26.20;92.30
2935;DHT22;2462;51.456;7.248;2023-08-01T12:16:57;26.40;92.00
2935;DHT22;2462;51.456;7.248;2023-08-01T12:19:23;26.50;91.90
2935;DHT22;2462;51.456;7.248;2023-08-01T12:21:49;26.50;91.80
2935;DHT22;2462;51.456;7.248;2023-08-01T12:24:15;26.50;92.00
2935;DHT22;2462;51.456;7.248;2023-08-01T12:26:40;26.40;92.10
2935;DHT22;2462;51.456;7.248;2023-08-01T12:29:06;26.40;92.20
2935;DHT22;2462;51.456;7.248;2023-08-01T12:31:33;26.40;92.20
2935;DHT22;2462;51.456;7.248;2023-08-01T12:33:58;26.40;92.20
2935;DHT22;2462;51.456;7.248;2023-08-01T12:36:24;26.40;92.30
2935;DHT22;2462;51.456;7.248;2023-08-01T12:38:49;26.40;92.30
2935;DHT22;2462;51.456;7.248;2023-08-01T12:41:15;26.40;92.50
2935;DHT22;2462;51.456;7.248;2023-08-01T12:43:41;26.40;92.30
2935;DHT22;2462;51.456;7.248;2023-08-01T12:46:07;26.40;92.40
2935;DHT22;2462;51.456;7.248;2023-08-01T12:48:32;26.40;92.40
2935;DHT22;2462;51.456;7.248;2023-08-01T12:50:58;26.50;92.40
2935;DHT22;2462;51.456;7.248;2023-08-01T12:53:23;26.40;92.40
2935;DHT22;2462;51.456;7.248;2023-08-01T12:55:50;26.30;92.40
2935;DHT22;2462;51.456;7.248;2023-08-01T12:58:16;26.20;92.50
2935;DHT22;2462;51.456;7.248;2023-08-01T13:00:43;26.00;92.80
